Time;durP1;ratioP1;P1;durP2;ratioP2;P2;SDS_P1;SDS_P2;PMS_P1;PMS_P2;Temp;Humidity;BMP_temperature;BMP_pressure;BME280_temperature;BME280_humidity;BME280_pressure;Samples;Min_cycle;Max_cycle;Signal;HPM_P1;HPM_P2
2022/11/03 00:02:02;;;;;;;17.23;2.95;;;10.30;99.90;;;;;;5116191;27;19923;-68
2022/11/03 00:04:28;;;;;;;15.80;3.55;;;10.50;99.90;;;;;;5134155;27;20046;-67
2022/11/03 00:06:54;;;;;;;16.92;2.85;;;10.50;99.90;;;;;;5134430;27;20043;-67
2022/11/03 00:09:22;;;;;;;14.73;3.17;;;10.50;99.90;;;;;;5134299;27;20124;-67
2022/11/03 00:11:51;;;;;;;12.88;3.25;;;10.30;99.90;;;;;;5134370;27;20047;-67
2022/11/03 00:14:17;;;;;;;17.60;4.07;;;10.60;99.90;;;;;;5134038;27;20043;-66
2022/11/03 00:16:44;;;;;;;18.92;3.78;;;10.30;99.90;;;;;;5134255;27;20051;-67
2022/11/03 00:19:12;;;;;;;16.10;2.90;;;10.30;99.90;;;;;;5134200;27;20054;-67
2022/11/03 00:21:37;;;;;;;18.73;3.05;;;10.50;99.90;;;;;;5134192;27;20103;-67
2022/11/03 00:24:04;;;;;;;12.38;2.92;;;10.50;99.90;;;;;;5134209;27;20403;-68
2022/11/03 00:26:30;;;;;;;;;;;10.40;99.90;;;;;;5116410;27;20047;-67
2022/11/03 00:29:04;;;;;;;16.63;3.17;;;10.40;99.90;;;;;;5133902;27;19926;-67
2022/11/03 00:31:33;;;;;;;13.02;3.80;;;10.30;99.90;;;;;;5133479;27;20047;-67
2022/11/03 00:33:59;;;;;;;15.20;3.00;;;10.70;99.90;;;;;;5133642;27;20133;-68
2022/11/03 00:36:37;;;;;;;19.80;4.70;;;10.40;99.90;;;;;;5133888;27;20047;-68
2022/11/03 00:39:04;;;;;;;10.07;2.63;;;10.30;99.90;;;;;;5133992;27;20107;-66
2022/11/03 00:41:29;;;;;;;19.55;3.45;;;10.20;99.90;;;;;;5133866;27;20051;-67
2022/11/03 00:43:56;;;;;;;14.50;3.13;;;10.10;99.90;;;;;;5133615;27;20464;-69
2022/11/03 00:46:22;;;;;;;18.30;3.60;;;10.20;99.90;;;;;;5133803;27;20051;-67
2022/11/03 00:48:49;;;;;;;9.13;2.70;;;10.60;99.90;;;;;;5115657;28;20432;-67
2022/11/03 00:51:24;;;;;;;17.92;3.58;;;10.40;99.90;;;;;;5133720;28;20050;-66
2022/11/03 00:53:52;;;;;;;15.45;3.42;;;10.10;99.90;;;;;;5133490;28;20050;-67
2022/11/03 00:56:21;;;;;;;14.00;2.97;;;10.90;99.90;;;;;;5133468;28;20047;-67
2022/11/03 00:58:47;;;;;;;13.63;3.30;;;10.40;99.90;;;;;;5133706;27;20471;-68
2022/11/03 01:01:30;;;;;;;16.63;2.78;;;10.30;99.90;;;;;;5115486;28;20038;-67
2022/11/03 01:06:50;;;;;;;14.73;3.13;;;10.00;99.90;;;;;;5133705;28;20054;-66
2022/11/03 01:09:28;;;;;;;11.98;2.88;;;10.80;99.90;;;;;;5115331;28;20457;-67
2022/11/03 01:11:58;;;;;;;13.32;3.22;;;10.10;99.90;;;;;;5133454;28;20435;-70
2022/11/03 01:14:44;;;;;;;14.82;2.95;;;10.20;99.90;;;;;;5133936;28;20090;-69
2022/11/03 01:17:13;;;;;;;17.33;4.45;;;10.10;99.90;;;;;;5133653;28;20054;-67
2022/11/03 01:19:39;;;;;;;16.75;3.05;;;11.40;99.90;;;;;;5133261;28;20639;-68
2022/11/03 01:22:05;;;;;;;15.55;3.00;;;10.00;99.90;;;;;;5133114;28;20122;-68
2022/11/03 01:24:31;;;;;;;15.50;3.90;;;9.80;99.90;;;;;;5133139;28;20047;-67
2022/11/03 01:26:57;;;;;;;16.52;4.35;;;9.90;99.90;;;;;;5133124;28;20050;-67
2022/11/03 01:29:22;;;;;;;16.75;3.10;;;10.40;99.90;;;;;;5133193;28;20107;-66
2022/11/03 01:31:48;;;;;;;14.98;3.03;;;9.90;99.90;;;;;;5114913;28;20097;-66
2022/11/03 01:34:16;;;;;;;14.23;3.17;;;10.90;99.90;;;;;;5133089;28;20108;-69
2022/11/03 01:36:43;;;;;;;21.20;3.33;;;10.00;99.90;;;;;;5133277;28;20051;-67
2022/11/03 01:39:15;;;;;;;15.73;3.17;;;10.10;99.90;;;;;;5133382;27;20043;-69
2022/11/03 01:41:42;;;;;;;14.55;3.10;;;10.10;99.90;;;;;;5132983;28;20078;-67
2022/11/03 01:44:08;;;;;;;17.83;3.38;;;10.30;99.90;;;;;;5135216;27;20506;-66
2022/11/03 01:46:49;;;;;;;27.30;3.95;;;10.00;99.90;;;;;;5118625;27;20043;-66
2022/11/03 01:49:24;;;;;;;16.65;4.10;;;10.40;99.90;;;;;;5137029;27;20062;-68
2022/11/03 01:51:55;;;;;;;16.45;2.92;;;10.00;99.90;;;;;;5137096;27;20050;-67
2022/11/03 01:54:26;;;;;;;21.05;4.07;;;10.30;99.90;;;;;;5136716;27;20510;-67
2022/11/03 01:56:53;;;;;;;16.30;3.17;;;9.90;99.90;;;;;;5136801;27;20118;-66
2022/11/03 01:59:21;;;;;;;19.95;3.33;;;10.30;99.90;;;;;;5136845;27;20510;-66
2022/11/03 02:01:47;;;;;;;19.85;3.63;;;10.10;99.90;;;;;;5136781;27;20054;-67
2022/11/03 02:04:21;;;;;;;11.90;3.67;;;10.20;99.90;;;;;;5136327;27;20479;-67
2022/11/03 02:06:57;;;;;;;11.70;2.65;;;10.00;99.90;;;;;;5136680;27;20361;-67
2022/11/03 02:09:23;;;;;;;13.30;3.13;;;9.90;99.90;;;;;;5136317;27;20046;-66
2022/11/03 02:12:07;;;;;;;15.32;3.53;;;10.10;99.90;;;;;;5136550;27;20191;-67
2022/11/03 02:14:44;;;;;;;14.77;2.85;;;9.80;99.90;;;;;;5136499;27;20111;-67
2022/11/03 02:17:12;;;;;;;13.85;3.10;;;10.20;99.90;;;;;;5136427;27;20051;-68
2022/11/03 02:19:49;;;;;;;14.60;2.78;;;9.90;99.90;;;;;;5136389;27;20047;-67
2022/11/03 02:22:35;;;;;;;17.00;3.08;;;9.80;99.90;;;;;;5136458;27;20551;-68
2022/11/03 02:25:37;;;;;;;14.68;3.25;;;9.90;99.90;;;;;;5136016;27;20039;-68
2022/11/03 02:28:04;;;;;;;17.50;3.15;;;10.00;99.90;;;;;;5131763;27;20057;-66
2022/11/03 02:30:41;;;;;;;21.48;3.92;;;9.90;99.90;;;;;;5136145;27;20054;-67
2022/11/03 02:33:35;;;;;;;16.63;3.22;;;10.00;99.90;;;;;;5135554;27;20055;-67
2022/11/03 02:36:27;;;;;;;13.73;3.30;;;10.10;99.90;;;;;;5117952;27;20547;-67
2022/11/03 02:39:06;;;;;;;21.40;3.13;;;10.10;99.90;;;;;;5135916;27;20043;-67
2022/11/03 02:41:34;;;;;;;20.73;2.92;;;9.90;99.90;;;;;;5136239;27;20050;-67
2022/11/03 02:44:01;;;;;;;20.17;3.30;;;10.80;99.90;;;;;;5136028;27;20051;-67
2022/11/03 02:46:30;;;;;;;15.23;3.28;;;10.10;99.90;;;;;;5117778;27;20043;-67
2022/11/03 02:48:56;;;;;;;14.63;2.90;;;9.90;99.90;;;;;;5135856;27;20054;-67
2022/11/03 02:51:23;;;;;;;17.58;3.33;;;9.90;99.90;;;;;;5117661;27;20043;-66
2022/11/03 02:54:22;;;;;;;16.90;3.85;;;10.20;99.90;;;;;;5135618;27;20096;-66
2022/11/03 02:57:02;;;;;;;19.67;4.22;;;9.80;99.90;;;;;;5123911;27;20059;-67
2022/11/03 02:59:38;;;;;;;23.08;4.28;;;9.70;99.90;;;;;;5135763;27;20043;-67
2022/11/03 03:02:12;;;;;;;10.68;2.75;;;10.10;99.90;;;;;;5135795;27;20047;-67
2022/11/03 03:04:50;;;;;;;21.65;3.25;;;9.80;99.90;;;;;;5135671;27;20043;-67
2022/11/03 03:07:25;;;;;;;17.10;3.40;;;10.10;99.90;;;;;;5135303;27;20069;-68
2022/11/03 03:10:02;;;;;;;20.08;3.38;;;10.40;99.90;;;;;;5135393;27;20050;-67
2022/11/03 03:12:32;;;;;;;16.17;3.40;;;10.00;99.90;;;;;;5135729;27;20502;-66
2022/11/03 03:14:59;;;;;;;13.88;3.42;;;10.00;99.90;;;;;;5116893;27;20097;-68
2022/11/03 03:17:50;;;;;;;16.83;3.65;;;9.80;99.90;;;;;;5135367;27;20131;-67
2022/11/03 03:20:27;;;;;;;20.27;3.75;;;9.60;99.90;;;;;;5135370;27;20046;-68
2022/11/03 03:23:22;;;;;;;15.10;3.22;;;9.90;99.90;;;;;;5134932;27;20050;-67
2022/11/03 03:25:53;;;;;;;10.70;3.03;;;10.20;99.90;;;;;;5131004;27;20055;-67
2022/11/03 03:28:32;;;;;;;16.83;3.25;;;10.50;99.90;;;;;;5135229;27;20039;-66
2022/11/03 03:31:01;;;;;;;11.75;3.33;;;10.30;99.90;;;;;;5135125;27;20035;-67
2022/11/03 03:33:30;;;;;;;15.70;3.85;;;10.30;99.90;;;;;;5134716;27;20059;-67
2022/11/03 03:35:58;;;;;;;23.63;3.70;;;10.20;99.90;;;;;;5134568;27;20138;-70
2022/11/03 03:38:29;;;;;;;16.58;3.38;;;10.10;99.90;;;;;;5135149;27;20085;-67
2022/11/03 03:40:58;;;;;;;13.07;3.33;;;10.20;99.90;;;;;;5134833;27;20039;-67
2022/11/03 03:43:25;;;;;;;18.55;3.53;;;10.30;99.90;;;;;;5134800;27;20061;-68
2022/11/03 03:45:54;;;;;;;16.02;2.70;;;10.10;99.90;;;;;;5134789;27;20051;-68
2022/11/03 03:48:20;;;;;;;17.17;3.40;;;10.50;99.90;;;;;;5134382;27;20525;-67
2022/11/03 03:50:48;;;;;;;17.33;3.50;;;10.20;99.90;;;;;;5134403;27;20050;-68
2022/11/03 03:53:16;;;;;;;15.00;3.22;;;10.30;99.90;;;;;;5134687;27;20043;-67
2022/11/03 03:55:46;;;;;;;21.70;3.70;;;10.50;99.90;;;;;;5134323;27;20562;-67
2022/11/03 03:58:13;;;;;;;15.32;3.47;;;10.10;99.90;;;;;;5134623;27;20042;-67
2022/11/03 04:00:39;;;;;;;10.48;3.63;;;10.10;99.90;;;;;;5134498;27;20039;-66
2022/11/03 04:03:05;;;;;;;;;;;10.20;99.90;;;;;;5134869;27;20057;-66
2022/11/03 04:05:31;;;;;;;13.70;3.05;;;10.20;99.90;;;;;;5134233;27;19928;-68
2022/11/03 04:07:57;;;;;;;17.42;3.08;;;10.30;99.90;;;;;;5133607;27;20054;-68
2022/11/03 04:10:24;;;;;;;24.55;3.83;;;10.30;99.90;;;;;;5134463;27;20527;-66
2022/11/03 04:23:45;;;;;;;15.35;3.35;;;9.90;99.90;;;;;;5134202;27;20536;-67
2022/11/03 04:26:15;;;;;;;17.02;3.70;;;9.70;99.90;;;;;;5133821;27;20051;-68
2022/11/03 04:28:41;;;;;;;19.35;3.88;;;10.60;99.90;;;;;;5133813;27;20099;-67
2022/11/03 04:31:13;;;;;;;;;;;9.60;99.90;;;;;;5134533;27;20398;-68
2022/11/03 04:33:40;;;;;;;16.08;3.53;;;10.20;99.90;;;;;;5133836;27;19942;-66
2022/11/03 04:36:09;;;;;;;20.95;4.47;;;9.90;99.90;;;;;;5134023;27;20082;-69
2022/11/03 04:38:36;;;;;;;17.67;3.75;;;9.80;99.90;;;;;;5133991;27;20051;-67
2022/11/03 04:41:11;;;;;;;21.80;3.38;;;10.10;99.90;;;;;;5115652;27;20079;-67
2022/11/03 04:43:37;;;;;;;16.13;3.45;;;10.10;99.90;;;;;;5134036;27;20042;-68
2022/11/03 04:46:04;;;;;;;16.10;3.72;;;10.20;99.90;;;;;;5133881;27;20082;-67
2022/11/03 04:48:29;;;;;;;;;;;10.30;99.90;;;;;;5134132;27;20039;-67
2022/11/03 04:50:58;;;;;;;19.15;2.90;;;9.90;99.90;;;;;;5133760;28;20301;-67
2022/11/03 04:53:29;;;;;;;17.25;3.88;;;10.20;99.90;;;;;;5133766;28;20600;-67
2022/11/03 04:55:55;;;;;;;13.50;3.08;;;10.40;99.90;;;;;;5133519;28;20501;-66
2022/11/03 04:58:24;;;;;;;18.77;3.72;;;10.30;99.90;;;;;;5133818;28;20050;-67
2022/11/03 05:00:52;;;;;;;19.58;3.72;;;10.00;99.90;;;;;;5133782;28;20046;-67
2022/11/03 05:03:24;;;;;;;18.92;3.53;;;9.80;99.90;;;;;;5133460;27;20047;-67
2022/11/03 05:05:50;;;;;;;17.50;3.33;;;9.90;99.90;;;;;;5133680;28;20054;-67
2022/11/03 05:08:17;;;;;;;17.60;3.17;;;9.90;99.90;;;;;;5133440;28;20047;-67
2022/11/03 05:10:43;;;;;;;17.92;3.15;;;9.90;99.90;;;;;;5133542;28;20047;-66
2022/11/03 05:13:23;;;;;;;15.98;3.20;;;9.90;99.90;;;;;;5133641;28;20039;-67
2022/11/03 05:15:51;;;;;;;9.43;3.08;;;9.90;99.90;;;;;;5133233;28;20482;-67
2022/11/03 05:18:28;;;;;;;13.57;3.25;;;10.10;99.90;;;;;;5133987;27;20047;-67
2022/11/03 05:21:01;;;;;;;18.63;3.50;;;10.00;99.90;;;;;;5137691;27;20118;-68
2022/11/03 05:23:30;;;;;;;14.93;3.63;;;9.70;99.90;;;;;;5137699;27;20055;-68
2022/11/03 05:25:57;;;;;;;23.95;3.67;;;9.80;99.90;;;;;;5137578;27;20087;-68
2022/11/03 05:28:30;;;;;;;19.17;3.97;;;9.90;99.90;;;;;;5137384;27;20583;-67
2022/11/03 05:30:56;;;;;;;14.25;3.03;;;9.90;99.90;;;;;;5137363;27;20043;-67
2022/11/03 05:33:22;;;;;;;16.38;3.70;;;10.00;99.90;;;;;;5136776;27;20058;-69
2022/11/03 05:35:47;;;;;;;13.90;3.20;;;10.00;99.90;;;;;;5137445;27;20125;-67
2022/11/03 05:38:15;;;;;;;18.55;3.33;;;9.90;99.90;;;;;;5137301;27;20043;-67
2022/11/03 05:40:41;;;;;;;15.35;3.15;;;10.00;99.90;;;;;;5137294;27;20043;-66
2022/11/03 05:43:12;;;;;;;15.93;2.90;;;9.90;99.90;;;;;;5137212;27;20047;-68
2022/11/03 05:45:37;;;;;;;13.63;3.80;;;9.90;99.90;;;;;;5137524;27;20084;-68
2022/11/03 05:48:16;;;;;;;10.55;2.72;;;10.90;99.90;;;;;;5136597;27;20471;-67
2022/11/03 05:50:41;;;;;;;16.75;3.28;;;9.90;99.90;;;;;;5137091;27;20047;-67
2022/11/03 05:53:27;;;;;;;17.05;3.17;;;9.90;99.90;;;;;;5136877;27;20384;-68
2022/11/03 05:55:54;;;;;;;19.67;3.35;;;9.90;99.90;;;;;;5137026;27;20062;-68
2022/11/03 05:58:36;;;;;;;14.63;3.70;;;10.40;99.90;;;;;;5136665;27;20051;-67
2022/11/03 06:01:24;;;;;;;18.58;3.58;;;10.30;99.90;;;;;;5136417;27;20140;-67
2022/11/03 06:03:51;;;;;;;15.32;3.08;;;10.10;99.90;;;;;;5122020;27;20332;-67
2022/11/03 06:06:45;;;;;;;12.95;3.15;;;10.20;99.90;;;;;;5136817;27;20127;-67
2022/11/03 06:09:17;;;;;;;11.13;2.72;;;10.50;99.90;;;;;;5132336;27;20055;-67
2022/11/03 06:11:44;;;;;;;12.93;3.17;;;10.20;99.90;;;;;;5136547;27;20057;-67
2022/11/03 06:14:21;;;;;;;14.90;3.35;;;10.50;99.90;;;;;;5136472;27;20042;-67
2022/11/03 06:16:55;;;;;;;19.65;3.78;;;10.40;99.90;;;;;;5136175;27;20506;-67
2022/11/03 06:19:31;;;;;;;14.60;3.17;;;10.30;99.90;;;;;;5136373;27;20047;-67
2022/11/03 06:22:04;;;;;;;13.25;3.35;;;10.30;99.90;;;;;;5136540;27;20043;-67
2022/11/03 06:24:32;;;;;;;13.07;3.22;;;10.20;99.90;;;;;;5136429;27;20122;-67
2022/11/03 06:26:58;;;;;;;19.02;3.42;;;10.70;99.90;;;;;;5136386;27;20431;-68
2022/11/03 06:29:24;;;;;;;23.50;3.53;;;10.50;99.90;;;;;;5135924;27;20152;-68
2022/11/03 06:31:54;;;;;;;13.20;3.30;;;10.20;99.90;;;;;;5135098;27;20043;-67
2022/11/03 06:34:59;;;;;;;12.30;2.88;;;10.50;99.90;;;;;;5136358;27;20047;-68
2022/11/03 06:37:32;;;;;;;11.35;3.05;;;10.40;99.90;;;;;;5117871;27;20436;-67
2022/11/03 06:40:19;;;;;;;11.98;3.60;;;10.30;99.90;;;;;;5135861;27;20478;-69
2022/11/03 06:42:45;;;;;;;13.23;3.65;;;10.70;99.90;;;;;;5121206;27;20577;-66
2022/11/03 06:45:18;;;;;;;14.20;3.40;;;10.50;99.90;;;;;;5135825;27;20123;-66
2022/11/03 06:47:43;;;;;;;13.40;2.83;;;10.30;99.90;;;;;;5135994;27;20047;-68
2022/11/03 06:50:26;;;;;;;17.17;3.55;;;11.50;99.90;;;;;;5135680;27;20142;-68
2022/11/03 06:52:54;;;;;;;21.02;3.70;;;10.30;99.90;;;;;;5135737;27;20047;-67
2022/11/03 06:55:30;;;;;;;11.50;3.72;;;10.50;99.90;;;;;;5135977;27;20379;-67
2022/11/03 06:58:03;;;;;;;12.63;2.95;;;10.70;99.90;;;;;;5135642;27;20048;-67
2022/11/03 07:00:30;;;;;;;10.20;3.40;;;10.50;99.90;;;;;;5135349;27;20039;-68
2022/11/03 07:03:40;;;;;;;13.23;2.95;;;10.40;99.90;;;;;;5117154;27;20046;-66
2022/11/03 07:06:09;;;;;;;12.90;3.72;;;10.40;99.90;;;;;;5130984;27;20063;-67
2022/11/03 07:08:38;;;;;;;13.30;3.65;;;10.60;99.90;;;;;;5135197;27;20043;-67
2022/11/03 07:11:13;;;;;;;17.20;3.78;;;10.80;99.90;;;;;;5135134;27;20172;-67
2022/11/03 07:13:39;;;;;;;10.30;2.95;;;10.10;99.90;;;;;;5135135;27;20090;-67
2022/11/03 07:16:17;;;;;;;12.10;3.35;;;10.50;99.90;;;;;;5135168;27;20046;-67
2022/11/03 07:18:44;;;;;;;12.82;3.28;;;10.70;99.90;;;;;;5135189;27;20055;-68
2022/11/03 07:21:35;;;;;;;15.90;3.83;;;10.70;99.90;;;;;;5135173;27;20078;-67
2022/11/03 07:24:14;;;;;;;11.38;3.25;;;10.20;99.90;;;;;;5131256;27;20196;-67
2022/11/03 07:26:39;;;;;;;21.58;3.17;;;10.50;99.90;;;;;;5135079;27;20085;-67
2022/11/03 07:29:11;;;;;;;12.65;3.45;;;10.20;99.90;;;;;;5134805;27;20082;-67
2022/11/03 07:31:36;;;;;;;14.32;3.20;;;10.70;99.90;;;;;;5134894;27;20043;-67
2022/11/03 07:34:09;;;;;;;12.80;3.22;;;10.60;99.90;;;;;;5134299;27;20066;-67
2022/11/03 07:36:35;;;;;;;13.15;2.70;;;10.90;99.90;;;;;;5135018;27;20043;-67
2022/11/03 07:39:02;;;;;;;15.98;3.28;;;10.80;99.90;;;;;;5134837;27;20058;-67
2022/11/03 07:41:30;;;;;;;;;;;10.80;99.90;;;;;;5135088;27;20050;-67
2022/11/03 07:43:58;;;;;;;15.20;3.85;;;11.60;99.90;;;;;;5134525;27;20036;-67
2022/11/03 07:46:25;;;;;;;14.05;3.40;;;10.90;99.90;;;;;;5134683;27;20039;-67
2022/11/03 07:48:57;;;;;;;15.77;3.97;;;11.00;99.90;;;;;;5099543;27;20137;-67
2022/11/03 07:51:36;;;;;;;12.20;3.17;;;10.90;99.90;;;;;;5134612;27;20443;-67
2022/11/03 07:54:07;;;;;;;19.02;3.17;;;10.90;99.90;;;;;;5134546;27;20054;-67
2022/11/03 07:56:49;;;;;;;13.55;2.90;;;10.90;99.90;;;;;;5134602;27;20127;-68
2022/11/03 07:59:16;;;;;;;10.77;3.20;;;10.90;99.90;;;;;;5134529;27;20047;-67
2022/11/03 08:01:54;;;;;;;14.45;3.20;;;11.10;99.90;;;;;;5099318;27;20055;-68
2022/11/03 08:04:33;;;;;;;15.48;3.25;;;11.00;99.90;;;;;;5134454;27;20050;-67
2022/11/03 08:06:58;;;;;;;12.02;3.38;;;11.20;99.90;;;;;;5134413;27;20054;-67
2022/11/03 08:09:24;;;;;;;15.98;3.50;;;11.20;99.90;;;;;;5134367;27;20058;-68
2022/11/03 08:11:50;;;;;;;11.80;3.15;;;11.30;99.90;;;;;;5133779;27;20046;-68
2022/11/03 08:14:16;;;;;;;;;;;11.20;99.90;;;;;;5134550;27;20047;-67
2022/11/03 08:16:42;;;;;;;11.93;3.17;;;11.20;99.90;;;;;;5134267;27;19942;-68
2022/11/03 08:19:08;;;;;;;10.52;3.10;;;11.00;99.90;;;;;;5134116;27;20062;-68
2022/11/03 08:21:34;;;;;;;15.02;3.20;;;11.70;99.90;;;;;;5133969;27;20035;-67
2022/11/03 08:23:59;;;;;;;;;;;11.60;99.90;;;;;;5134273;27;20529;-67
2022/11/03 08:26:25;;;;;;;14.85;3.58;;;11.70;99.90;;;;;;5115623;27;19966;-68
2022/11/03 08:28:51;;;;;;;13.38;3.40;;;11.40;99.90;;;;;;5134125;27;20059;-68
2022/11/03 08:31:17;;;;;;;12.60;3.33;;;11.40;99.90;;;;;;5133839;27;20031;-68
2022/11/03 08:33:43;;;;;;;17.80;6.57;;;11.80;99.90;;;;;;5133484;27;20035;-68
2022/11/03 08:36:09;;;;;;;12.18;3.47;;;11.40;99.90;;;;;;5134282;27;20133;-67
2022/11/03 08:38:35;;;;;;;14.95;3.28;;;11.90;99.90;;;;;;5133587;27;20054;-69
2022/11/03 08:41:01;;;;;;;11.70;3.47;;;11.70;99.90;;;;;;5133574;27;20047;-68
2022/11/03 08:43:27;;;;;;;13.93;3.22;;;12.00;99.90;;;;;;5133834;27;20125;-67
2022/11/03 08:45:53;;;;;;;19.35;4.63;;;11.80;99.90;;;;;;5133714;27;20078;-68
2022/11/03 08:48:19;;;;;;;;;;;12.10;99.90;;;;;;5134004;27;20084;-68
2022/11/03 08:50:46;;;;;;;10.65;3.35;;;12.00;99.90;;;;;;5133764;28;19971;-68
2022/11/03 08:53:11;;;;;;;13.23;3.50;;;11.90;99.90;;;;;;5133151;27;20054;-69
2022/11/03 08:55:37;;;;;;;17.60;4.75;;;11.90;99.90;;;;;;5133431;28;20043;-67
2022/11/03 08:58:03;;;;;;;13.50;3.20;;;12.20;99.90;;;;;;5133629;28;20046;-68
2022/11/03 09:00:28;;;;;;;10.27;3.30;;;12.20;99.90;;;;;;5133725;28;20039;-66
2022/11/03 09:02:54;;;;;;;15.13;3.58;;;11.90;99.90;;;;;;5133710;28;20043;-67
2022/11/03 09:05:19;;;;;;;11.00;3.55;;;12.20;99.90;;;;;;5133614;28;20047;-70
2022/11/03 09:07:45;;;;;;;11.82;3.50;;;12.50;99.90;;;;;;5133674;28;20047;-69
2022/11/03 09:10:11;;;;;;;18.77;3.53;;;12.20;99.90;;;;;;5133135;28;20047;-68
2022/11/03 09:12:37;;;;;;;13.07;3.03;;;12.30;99.90;;;;;;5133516;28;20045;-68
2022/11/03 09:15:04;;;;;;;17.20;3.55;;;12.10;99.90;;;;;;5133405;28;20375;-68
2022/11/03 09:17:30;;;;;;;12.80;3.97;;;12.10;99.90;;;;;;5133434;28;20134;-68
2022/11/03 09:19:56;;;;;;;15.93;4.53;;;12.50;99.90;;;;;;5115303;28;20131;-68
2022/11/03 09:22:22;;;;;;;16.73;3.85;;;12.30;99.90;;;;;;5133369;27;20051;-67
2022/11/03 09:24:48;;;;;;;15.75;3.92;;;11.70;99.90;;;;;;5132940;27;20047;-68
2022/11/03 09:27:13;;;;;;;16.67;3.20;;;12.70;99.90;;;;;;5115283;28;20420;-68
2022/11/03 09:29:39;;;;;;;11.43;3.20;;;12.80;99.90;;;;;;5132939;28;20047;-67
2022/11/03 09:32:05;;;;;;;10.70;3.67;;;12.50;99.90;;;;;;5133382;28;20058;-67
2022/11/03 09:34:31;;;;;;;19.40;3.42;;;12.80;99.90;;;;;;5133224;28;20085;-70
2022/11/03 09:36:57;;;;;;;14.38;3.75;;;12.70;99.90;;;;;;5133293;28;20047;-68
2022/11/03 09:39:22;;;;;;;17.83;5.97;;;12.90;99.90;;;;;;5133128;28;20047;-67
2022/11/03 09:41:49;;;;;;;17.27;3.67;;;12.70;99.90;;;;;;5133247;28;20122;-67
2022/11/03 09:44:16;;;;;;;18.17;3.80;;;13.20;99.90;;;;;;5133198;28;20124;-68
2022/11/03 09:46:42;;;;;;;12.30;3.63;;;12.60;99.90;;;;;;5133181;28;20051;-68
2022/11/03 09:49:13;;;;;;;19.10;4.20;;;13.10;99.90;;;;;;5129156;27;20043;-67
2022/11/03 09:51:40;;;;;;;10.82;3.10;;;12.90;99.90;;;;;;5137817;27;20478;-67
2022/11/03 09:54:10;;;;;;;11.82;3.33;;;12.70;99.90;;;;;;5145692;27;20043;-67
2022/11/03 09:56:36;;;;;;;10.52;2.78;;;13.00;99.90;;;;;;5132459;28;20051;-68
2022/11/03 09:59:14;;;;;;;11.50;3.50;;;13.30;99.90;;;;;;5132578;27;20387;-66
2022/11/03 10:01:41;;;;;;;9.45;3.03;;;13.10;99.90;;;;;;5141596;27;20482;-70
2022/11/03 10:04:10;;;;;;;14.80;3.50;;;13.70;99.90;;;;;;5146166;27;20047;-69
2022/11/03 10:06:35;;;;;;;13.15;3.67;;;13.20;99.90;;;;;;5134816;27;20082;-70
2022/11/03 10:09:01;;;;;;;13.93;3.25;;;13.00;99.90;;;;;;5135836;27;20482;-66
2022/11/03 10:11:27;;;;;;;16.27;3.42;;;13.00;99.90;;;;;;5136063;27;20111;-69
2022/11/03 10:13:54;;;;;;;16.23;3.30;;;13.30;99.90;;;;;;5135542;27;20043;-68
2022/11/03 10:16:23;;;;;;;12.23;2.83;;;13.40;99.90;;;;;;5118002;27;20049;-70
2022/11/03 10:18:49;;;;;;;9.32;3.08;;;14.10;99.90;;;;;;5136234;27;20035;-66
2022/11/03 10:21:26;;;;;;;;;;;13.40;99.90;;;;;;5136169;27;20043;-70
2022/11/03 10:23:51;;;;;;;12.23;3.53;;;13.50;99.90;;;;;;5142943;27;19923;-69
2022/11/03 10:26:19;;;;;;;10.15;3.40;;;13.50;99.90;;;;;;5117219;27;20170;-67
2022/11/03 10:29:01;;;;;;;15.52;4.57;;;13.50;99.90;;;;;;5150567;27;20047;-68
2022/11/03 10:31:37;;;;;;;14.20;2.92;;;13.30;99.90;;;;;;5135016;27;20508;-69
2022/11/03 10:34:05;;;;;;;12.65;3.30;;;13.90;99.90;;;;;;5134986;27;20043;-69
2022/11/03 10:36:33;;;;;;;11.10;3.03;;;13.80;99.90;;;;;;5134441;27;20497;-69
2022/11/03 10:39:16;;;;;;;12.32;3.28;;;13.60;99.90;;;;;;5135319;27;20035;-68
2022/11/03 10:41:57;;;;;;;13.02;3.13;;;14.90;99.90;;;;;;5135432;27;20041;-68
2022/11/03 10:44:26;;;;;;;16.83;3.60;;;13.70;99.90;;;;;;5141997;27;20050;-68
2022/11/03 10:46:59;;;;;;;20.08;4.60;;;13.20;99.90;;;;;;5137292;27;20035;-68
2022/11/03 10:49:28;;;;;;;12.25;3.83;;;13.60;99.90;;;;;;5155518;27;20513;-69
2022/11/03 10:52:12;;;;;;;12.30;3.05;;;13.60;99.90;;;;;;5154698;27;20073;-68
2022/11/03 10:54:37;;;;;;;12.73;4.03;;;13.80;99.90;;;;;;5155415;27;20050;-68
2022/11/03 10:57:03;;;;;;;14.43;4.00;;;13.60;99.90;;;;;;5155282;27;20045;-72
2022/11/03 10:59:34;;;;;;;;;;;13.50;99.90;;;;;;5155142;27;20047;-70
2022/11/03 11:02:00;;;;;;;14.43;3.05;;;13.80;99.90;;;;;;5147219;27;19919;-67
2022/11/03 11:04:26;;;;;;;17.67;3.50;;;13.30;99.90;;;;;;5141229;27;20584;-68
2022/11/03 11:06:52;;;;;;;16.63;3.40;;;13.80;99.90;;;;;;5155138;27;20133;-67
2022/11/03 11:09:26;;;;;;;13.85;2.67;;;14.00;99.90;;;;;;5155542;27;20085;-68
2022/11/03 11:12:14;;;;;;;11.23;2.83;;;13.70;99.90;;;;;;5155757;27;20216;-67
2022/11/03 11:14:57;;;;;;;8.23;3.13;;;13.10;99.90;;;;;;5139857;27;20096;-67
2022/11/03 11:17:43;;;;;;;12.75;3.15;;;13.80;99.90;;;;;;5134480;27;20047;-69
2022/11/03 11:20:20;;;;;;;8.93;2.83;;;14.30;99.90;;;;;;5134768;27;20122;-67
2022/11/03 11:22:49;;;;;;;11.00;3.17;;;14.30;99.90;;;;;;5134955;27;20060;-67
2022/11/03 11:25:17;;;;;;;12.35;3.05;;;14.30;99.90;;;;;;5134966;27;20067;-70
2022/11/03 11:27:53;;;;;;;13.73;3.30;;;14.00;99.90;;;;;;5134943;27;20047;-66
2022/11/03 11:30:19;;;;;;;11.43;3.33;;;14.30;99.90;;;;;;5134830;27;20050;-67
2022/11/03 11:32:44;;;;;;;;;;;14.60;99.90;;;;;;5135065;27;20055;-67
2022/11/03 11:35:14;;;;;;;6.97;2.60;;;14.60;99.90;;;;;;5127096;27;19919;-66
2022/11/03 11:37:40;;;;;;;13.60;3.20;;;14.40;99.90;;;;;;5146070;27;20047;-67
2022/11/03 11:40:24;;;;;;;15.13;2.95;;;14.70;99.90;;;;;;5155172;27;20042;-66
2022/11/03 11:43:01;;;;;;;14.40;3.22;;;14.70;99.90;;;;;;5155172;27;20086;-67
2022/11/03 11:46:04;;;;;;;12.40;3.42;;;14.80;99.90;;;;;;5155241;27;20056;-68
2022/11/03 11:48:31;;;;;;;12.57;3.00;;;14.60;99.90;;;;;;5155258;27;20046;-67
2022/11/03 11:51:00;;;;;;;11.07;2.47;;;14.70;99.90;;;;;;5154914;27;20889;-67
2022/11/03 11:53:28;;;;;;;7.20;2.50;;;15.00;99.90;;;;;;5136721;27;20054;-67
2022/11/03 11:56:00;;;;;;;15.45;3.05;;;15.40;99.90;;;;;;5155142;27;20474;-67
2022/11/03 11:58:34;;;;;;;10.13;2.78;;;15.30;99.90;;;;;;5155103;27;20064;-66
2022/11/03 12:01:28;;;;;;;10.85;2.92;;;15.80;99.90;;;;;;5155090;27;20078;-66
2022/11/03 12:04:06;;;;;;;10.40;3.33;;;15.50;99.90;;;;;;5154535;27;20050;-67
2022/11/03 12:06:37;;;;;;;11.07;3.70;;;15.40;99.90;;;;;;5155027;27;20054;-68
2022/11/03 12:09:14;;;;;;;12.20;2.80;;;15.50;99.90;;;;;;5138994;27;20055;-68
2022/11/03 12:11:43;;;;;;;13.13;3.00;;;15.50;99.90;;;;;;5134141;27;20079;-67
2022/11/03 12:14:29;;;;;;;10.15;2.40;;;15.20;99.90;;;;;;5133941;27;20126;-67
2022/11/03 12:16:56;;;;;;;9.77;3.00;;;15.20;99.90;;;;;;5134032;27;20052;-68
2022/11/03 12:19:45;;;;;;;8.82;2.40;;;15.30;99.90;;;;;;5133423;27;20043;-67
2022/11/03 12:22:23;;;;;;;10.20;2.65;;;15.10;99.90;;;;;;5133856;27;20134;-67
2022/11/03 12:24:59;;;;;;;10.48;2.42;;;15.30;99.90;;;;;;5133954;27;20043;-67
2022/11/03 12:27:25;;;;;;;10.07;2.63;;;15.20;99.90;;;;;;5133395;27;20526;-68
2022/11/03 12:29:51;;;;;;;;;;;15.20;99.90;;;;;;5133759;27;20090;-67
2022/11/03 12:32:17;;;;;;;4.45;1.85;;;15.40;99.90;;;;;;5133528;27;19923;-68
2022/11/03 12:34:44;;;;;;;9.40;2.60;;;15.10;99.90;;;;;;5133727;27;20066;-68
2022/11/03 12:37:10;;;;;;;8.77;2.38;;;15.20;99.90;;;;;;5133628;27;20047;-67
2022/11/03 12:39:36;;;;;;;10.63;2.88;;;15.20;99.90;;;;;;5133683;27;20398;-67
2022/11/03 12:42:01;;;;;;;;;;;15.10;99.90;;;;;;5115780;27;20048;-71
2022/11/03 12:44:27;;;;;;;7.68;2.35;;;15.00;99.90;;;;;;5133563;27;19929;-66
2022/11/03 12:46:53;;;;;;;;;;;15.10;99.90;;;;;;5133707;27;20047;-67
2022/11/03 12:49:18;;;;;;;9.45;2.53;;;14.80;99.90;;;;;;5133832;27;20343;-68
2022/11/03 12:51:44;;;;;;;;;;;15.00;99.90;;;;;;5134214;27;20101;-67
2022/11/03 12:54:09;;;;;;;10.25;2.60;;;15.20;99.90;;;;;;5115249;28;19920;-67
2022/11/03 12:56:35;;;;;;;;;;;15.00;99.90;;;;;;5133838;28;20083;-67
2022/11/03 12:59:01;;;;;;;9.07;2.63;;;14.70;99.90;;;;;;5133489;28;19923;-67
2022/11/03 13:01:26;;;;;;;9.73;2.55;;;15.20;99.90;;;;;;5133271;28;20042;-67
2022/11/03 13:03:52;;;;;;;;;;;15.00;99.90;;;;;;5115444;28;20051;-67
2022/11/03 13:06:18;;;;;;;8.38;2.38;;;14.60;99.90;;;;;;5133608;28;20302;-69
2022/11/03 13:08:44;;;;;;;8.50;2.42;;;14.90;99.90;;;;;;5115279;28;20043;-67
2022/11/03 13:13:55;;;;;;;7.68;2.20;;;15.00;99.90;;;;;;5133288;28;20043;-66
2022/11/03 13:16:21;;;;;;;7.20;2.20;;;15.20;99.90;;;;;;5133150;28;20415;-68
2022/11/03 13:18:47;;;;;;;8.98;2.97;;;14.70;99.90;;;;;;5133359;28;20137;-67